sensor_id;sensor_type;location;lat;lon;timestamp;P1;durP1;ratioP1;P2;durP2;ratioP2
67776;SDS011;54576;52.020;5.536;2023-11-18T00:00:07;44.35;;;22.52;;
67776;SDS011;54576;52.020;5.536;2023-11-18T00:02:37;57.63;;;24.98;;
67776;SDS011;54576;52.020;5.536;2023-11-18T00:05:06;52.22;;;24.25;;
67776;SDS011;54576;52.020;5.536;2023-11-18T00:07:32;51.53;;;24.85;;
67776;SDS011;54576;52.020;5.536;2023-11-18T00:09:58;52.05;;;23.38;;
67776;SDS011;54576;52.020;5.536;2023-11-18T00:12:23;37.70;;;20.42;;
67776;SDS011;54576;52.020;5.536;2023-11-18T00:14:49;42.15;;;21.55;;
67776;SDS011;54576;52.020;5.536;2023-11-18T00:17:15;50.03;;;24.27;;
67776;SDS011;54576;52.020;5.536;2023-11-18T00:19:41;56.90;;;23.38;;
67776;SDS011;54576;52.020;5.536;2023-11-18T00:22:07;49.20;;;22.90;;
67776;SDS011;54576;52.020;5.536;2023-11-18T00:24:33;44.13;;;22.25;;
67776;SDS011;54576;52.020;5.536;2023-11-18T00:26:59;53.20;;;23.90;;
67776;SDS011;54576;52.020;5.536;2023-11-18T00:29:34;44.08;;;21.88;;
67776;SDS011;54576;52.020;5.536;2023-11-18T00:32:00;45.90;;;22.17;;
67776;SDS011;54576;52.020;5.536;2023-11-18T00:34:26;40.33;;;22.77;;
67776;SDS011;54576;52.020;5.536;2023-11-18T00:36:53;55.97;;;23.25;;
67776;SDS011;54576;52.020;5.536;2023-11-18T00:39:19;42.35;;;21.58;;
67776;SDS011;54576;52.020;5.536;2023-11-18T00:41:45;51.75;;;23.95;;
67776;SDS011;54576;52.020;5.536;2023-11-18T00:44:11;47.03;;;22.30;;
67776;SDS011;54576;52.020;5.536;2023-11-18T00:46:38;43.33;;;23.00;;
67776;SDS011;54576;52.020;5.536;2023-11-18T00:49:07;56.30;;;22.60;;
67776;SDS011;54576;52.020;5.536;2023-11-18T00:51:32;42.60;;;22.23;;
67776;SDS011;54576;52.020;5.536;2023-11-18T00:53:58;50.03;;;23.35;;
67776;SDS011;54576;52.020;5.536;2023-11-18T00:56:28;40.85;;;22.98;;
67776;SDS011;54576;52.020;5.536;2023-11-18T00:58:54;55.95;;;25.35;;
67776;SDS011;54576;52.020;5.536;2023-11-18T01:01:20;62.92;;;24.85;;
67776;SDS011;54576;52.020;5.536;2023-11-18T01:03:46;45.83;;;22.20;;
67776;SDS011;54576;52.020;5.536;2023-11-18T01:06:12;50.72;;;23.30;;
67776;SDS011;54576;52.020;5.536;2023-11-18T01:08:40;48.63;;;22.40;;
67776;SDS011;54576;52.020;5.536;2023-11-18T01:11:08;44.17;;;23.03;;
67776;SDS011;54576;52.020;5.536;2023-11-18T01:13:34;43.53;;;21.13;;
67776;SDS011;54576;52.020;5.536;2023-11-18T01:15:59;46.22;;;23.27;;
67776;SDS011;54576;52.020;5.536;2023-11-18T01:18:25;48.88;;;23.20;;
67776;SDS011;54576;52.020;5.536;2023-11-18T01:20:51;49.35;;;23.45;;
67776;SDS011;54576;52.020;5.536;2023-11-18T01:23:16;47.97;;;22.58;;
67776;SDS011;54576;52.020;5.536;2023-11-18T01:25:42;54.83;;;23.83;;
67776;SDS011;54576;52.020;5.536;2023-11-18T01:28:07;55.17;;;22.73;;
67776;SDS011;54576;52.020;5.536;2023-11-18T01:30:36;47.97;;;22.85;;
67776;SDS011;54576;52.020;5.536;2023-11-18T01:33:02;51.57;;;22.63;;
67776;SDS011;54576;52.020;5.536;2023-11-18T01:35:28;51.20;;;23.60;;
67776;SDS011;54576;52.020;5.536;2023-11-18T01:37:54;62.50;;;25.48;;
67776;SDS011;54576;52.020;5.536;2023-11-18T01:40:20;60.17;;;25.80;;
67776;SDS011;54576;52.020;5.536;2023-11-18T01:42:46;54.70;;;24.67;;
67776;SDS011;54576;52.020;5.536;2023-11-18T01:45:15;57.72;;;25.65;;
67776;SDS011;54576;52.020;5.536;2023-11-18T01:50:11;53.78;;;25.48;;
67776;SDS011;54576;52.020;5.536;2023-11-18T01:52:42;46.75;;;23.08;;
67776;SDS011;54576;52.020;5.536;2023-11-18T01:55:09;52.35;;;25.13;;
67776;SDS011;54576;52.020;5.536;2023-11-18T01:57:35;52.40;;;23.38;;
67776;SDS011;54576;52.020;5.536;2023-11-18T02:00:02;56.25;;;24.10;;
67776;SDS011;54576;52.020;5.536;2023-11-18T02:02:31;55.88;;;25.98;;
67776;SDS011;54576;52.020;5.536;2023-11-18T02:04:58;62.28;;;26.33;;
67776;SDS011;54576;52.020;5.536;2023-11-18T02:07:26;50.97;;;24.05;;
67776;SDS011;54576;52.020;5.536;2023-11-18T02:09:53;50.22;;;24.40;;
67776;SDS011;54576;52.020;5.536;2023-11-18T02:12:29;54.17;;;25.27;;
67776;SDS011;54576;52.020;5.536;2023-11-18T02:15:09;55.85;;;25.10;;
67776;SDS011;54576;52.020;5.536;2023-11-18T02:17:38;59.85;;;25.20;;
67776;SDS011;54576;52.020;5.536;2023-11-18T02:20:07;48.88;;;24.20;;
67776;SDS011;54576;52.020;5.536;2023-11-18T02:22:41;48.70;;;25.55;;
67776;SDS011;54576;52.020;5.536;2023-11-18T02:25:17;51.17;;;23.70;;
67776;SDS011;54576;52.020;5.536;2023-11-18T02:27:44;52.60;;;24.58;;
67776;SDS011;54576;52.020;5.536;2023-11-18T02:30:10;48.65;;;23.80;;
67776;SDS011;54576;52.020;5.536;2023-11-18T02:35:24;47.75;;;22.92;;
67776;SDS011;54576;52.020;5.536;2023-11-18T02:37:56;46.22;;;23.45;;
67776;SDS011;54576;52.020;5.536;2023-11-18T02:40:33;47.58;;;23.35;;
67776;SDS011;54576;52.020;5.536;2023-11-18T02:43:06;47.40;;;23.20;;
67776;SDS011;54576;52.020;5.536;2023-11-18T02:45:34;50.53;;;24.15;;
67776;SDS011;54576;52.020;5.536;2023-11-18T02:48:01;43.63;;;22.65;;
67776;SDS011;54576;52.020;5.536;2023-11-18T02:50:27;44.78;;;22.20;;
67776;SDS011;54576;52.020;5.536;2023-11-18T02:52:53;54.53;;;23.13;;
67776;SDS011;54576;52.020;5.536;2023-11-18T02:55:19;49.47;;;22.80;;
67776;SDS011;54576;52.020;5.536;2023-11-18T02:57:46;44.78;;;21.80;;
67776;SDS011;54576;52.020;5.536;2023-11-18T03:00:12;45.38;;;21.63;;
67776;SDS011;54576;52.020;5.536;2023-11-18T03:02:43;50.30;;;23.15;;
67776;SDS011;54576;52.020;5.536;2023-11-18T03:05:11;49.47;;;21.60;;
67776;SDS011;54576;52.020;5.536;2023-11-18T03:07:37;41.47;;;21.30;;
67776;SDS011;54576;52.020;5.536;2023-11-18T03:10:03;47.03;;;23.52;;
67776;SDS011;54576;52.020;5.536;2023-11-18T03:12:35;45.80;;;21.08;;
67776;SDS011;54576;52.020;5.536;2023-11-18T03:15:01;45.25;;;21.80;;
67776;SDS011;54576;52.020;5.536;2023-11-18T03:17:27;46.03;;;21.83;;
67776;SDS011;54576;52.020;5.536;2023-11-18T03:19:53;53.53;;;22.25;;
67776;SDS011;54576;52.020;5.536;2023-11-18T03:22:19;49.15;;;22.08;;
67776;SDS011;54576;52.020;5.536;2023-11-18T03:24:44;44.65;;;19.92;;
67776;SDS011;54576;52.020;5.536;2023-11-18T03:27:10;42.63;;;22.17;;
67776;SDS011;54576;52.020;5.536;2023-11-18T03:29:35;41.03;;;21.90;;
67776;SDS011;54576;52.020;5.536;2023-11-18T03:32:01;41.75;;;20.25;;
67776;SDS011;54576;52.020;5.536;2023-11-18T03:34:27;47.40;;;22.35;;
67776;SDS011;54576;52.020;5.536;2023-11-18T03:36:52;37.53;;;20.48;;
67776;SDS011;54576;52.020;5.536;2023-11-18T03:39:18;43.47;;;22.88;;
67776;SDS011;54576;52.020;5.536;2023-11-18T03:41:44;44.50;;;21.20;;
67776;SDS011;54576;52.020;5.536;2023-11-18T03:44:12;45.47;;;20.85;;
67776;SDS011;54576;52.020;5.536;2023-11-18T03:46:38;47.92;;;21.95;;
67776;SDS011;54576;52.020;5.536;2023-11-18T03:49:04;42.97;;;21.25;;
67776;SDS011;54576;52.020;5.536;2023-11-18T03:51:29;54.88;;;24.33;;
67776;SDS011;54576;52.020;5.536;2023-11-18T03:53:55;47.53;;;23.05;;
67776;SDS011;54576;52.020;5.536;2023-11-18T03:56:20;51.08;;;22.10;;
67776;SDS011;54576;52.020;5.536;2023-11-18T03:58:46;52.13;;;22.23;;
67776;SDS011;54576;52.020;5.536;2023-11-18T04:01:19;45.50;;;21.88;;
67776;SDS011;54576;52.020;5.536;2023-11-18T04:03:49;52.28;;;22.83;;
67776;SDS011;54576;52.020;5.536;2023-11-18T04:06:15;48.22;;;22.17;;
67776;SDS011;54576;52.020;5.536;2023-11-18T04:08:45;53.08;;;22.42;;
67776;SDS011;54576;52.020;5.536;2023-11-18T04:11:11;46.83;;;22.08;;
67776;SDS011;54576;52.020;5.536;2023-11-18T04:13:39;48.45;;;24.13;;
67776;SDS011;54576;52.020;5.536;2023-11-18T04:16:11;48.63;;;23.73;;
67776;SDS011;54576;52.020;5.536;2023-11-18T04:18:40;53.30;;;22.80;;
67776;SDS011;54576;52.020;5.536;2023-11-18T04:21:07;47.88;;;22.92;;
67776;SDS011;54576;52.020;5.536;2023-11-18T04:23:37;55.78;;;24.92;;
67776;SDS011;54576;52.020;5.536;2023-11-18T04:26:03;61.03;;;27.02;;
67776;SDS011;54576;52.020;5.536;2023-11-18T04:28:30;70.35;;;26.90;;
67776;SDS011;54576;52.020;5.536;2023-11-18T04:30:55;67.30;;;25.92;;
67776;SDS011;54576;52.020;5.536;2023-11-18T04:33:21;55.70;;;25.45;;
67776;SDS011;54576;52.020;5.536;2023-11-18T04:35:47;63.60;;;28.20;;
67776;SDS011;54576;52.020;5.536;2023-11-18T04:38:12;55.13;;;25.98;;
67776;SDS011;54576;52.020;5.536;2023-11-18T04:40:38;57.22;;;26.55;;
67776;SDS011;54576;52.020;5.536;2023-11-18T04:43:06;58.08;;;27.45;;
67776;SDS011;54576;52.020;5.536;2023-11-18T04:45:32;63.10;;;27.20;;
67776;SDS011;54576;52.020;5.536;2023-11-18T04:47:57;66.78;;;28.30;;
67776;SDS011;54576;52.020;5.536;2023-11-18T04:50:24;60.05;;;26.60;;
67776;SDS011;54576;52.020;5.536;2023-11-18T04:52:50;57.45;;;26.35;;
67776;SDS011;54576;52.020;5.536;2023-11-18T04:55:15;64.50;;;26.38;;
67776;SDS011;54576;52.020;5.536;2023-11-18T04:57:41;52.30;;;24.67;;
67776;SDS011;54576;52.020;5.536;2023-11-18T05:00:07;69.15;;;27.50;;
67776;SDS011;54576;52.020;5.536;2023-11-18T05:05:05;54.00;;;23.25;;
67776;SDS011;54576;52.020;5.536;2023-11-18T05:07:34;56.97;;;25.13;;
67776;SDS011;54576;52.020;5.536;2023-11-18T05:10:00;58.53;;;24.98;;
67776;SDS011;54576;52.020;5.536;2023-11-18T05:12:28;53.33;;;25.42;;
67776;SDS011;54576;52.020;5.536;2023-11-18T05:14:54;54.50;;;25.45;;
67776;SDS011;54576;52.020;5.536;2023-11-18T05:17:22;54.55;;;25.10;;
67776;SDS011;54576;52.020;5.536;2023-11-18T05:19:48;52.22;;;24.27;;
67776;SDS011;54576;52.020;5.536;2023-11-18T05:22:16;46.15;;;22.90;;
67776;SDS011;54576;52.020;5.536;2023-11-18T05:24:43;49.88;;;21.52;;
67776;SDS011;54576;52.020;5.536;2023-11-18T05:27:09;46.83;;;22.13;;
67776;SDS011;54576;52.020;5.536;2023-11-18T05:29:34;47.17;;;21.70;;
67776;SDS011;54576;52.020;5.536;2023-11-18T05:32:00;47.95;;;21.60;;
67776;SDS011;54576;52.020;5.536;2023-11-18T05:34:25;53.47;;;21.42;;
67776;SDS011;54576;52.020;5.536;2023-11-18T05:36:51;47.33;;;21.63;;
67776;SDS011;54576;52.020;5.536;2023-11-18T05:39:22;42.95;;;21.00;;
67776;SDS011;54576;52.020;5.536;2023-11-18T05:41:53;47.80;;;20.77;;
67776;SDS011;54576;52.020;5.536;2023-11-18T05:44:20;45.92;;;18.75;;
67776;SDS011;54576;52.020;5.536;2023-11-18T05:46:55;38.33;;;19.77;;
67776;SDS011;54576;52.020;5.536;2023-11-18T05:49:24;43.45;;;19.90;;
67776;SDS011;54576;52.020;5.536;2023-11-18T05:51:49;45.30;;;19.08;;
67776;SDS011;54576;52.020;5.536;2023-11-18T05:54:16;39.25;;;17.73;;
67776;SDS011;54576;52.020;5.536;2023-11-18T05:56:42;42.45;;;17.80;;
67776;SDS011;54576;52.020;5.536;2023-11-18T05:59:08;41.67;;;19.25;;
67776;SDS011;54576;52.020;5.536;2023-11-18T06:01:33;33.13;;;16.58;;
67776;SDS011;54576;52.020;5.536;2023-11-18T06:03:59;39.97;;;18.10;;
67776;SDS011;54576;52.020;5.536;2023-11-18T06:06:25;33.00;;;16.25;;
67776;SDS011;54576;52.020;5.536;2023-11-18T06:08:51;36.83;;;16.17;;
67776;SDS011;54576;52.020;5.536;2023-11-18T06:11:18;33.75;;;17.05;;
67776;SDS011;54576;52.020;5.536;2023-11-18T06:13:45;37.33;;;16.15;;
67776;SDS011;54576;52.020;5.536;2023-11-18T06:16:15;41.03;;;16.02;;
67776;SDS011;54576;52.020;5.536;2023-11-18T06:18:46;38.40;;;17.23;;
67776;SDS011;54576;52.020;5.536;2023-11-18T06:21:16;34.15;;;15.95;;
67776;SDS011;54576;52.020;5.536;2023-11-18T06:23:44;34.88;;;17.55;;
67776;SDS011;54576;52.020;5.536;2023-11-18T06:26:13;39.80;;;17.13;;
67776;SDS011;54576;52.020;5.536;2023-11-18T06:28:42;35.15;;;17.15;;
67776;SDS011;54576;52.020;5.536;2023-11-18T06:31:09;34.58;;;16.67;;
67776;SDS011;54576;52.020;5.536;2023-11-18T06:33:39;35.63;;;16.05;;
67776;SDS011;54576;52.020;5.536;2023-11-18T06:36:09;44.55;;;17.05;;
67776;SDS011;54576;52.020;5.536;2023-11-18T06:38:38;32.33;;;15.98;;
67776;SDS011;54576;52.020;5.536;2023-11-18T06:41:05;44.53;;;18.42;;
67776;SDS011;54576;52.020;5.536;2023-11-18T06:43:36;38.92;;;18.67;;
67776;SDS011;54576;52.020;5.536;2023-11-18T06:46:24;38.53;;;16.77;;
67776;SDS011;54576;52.020;5.536;2023-11-18T06:48:54;40.90;;;17.48;;
67776;SDS011;54576;52.020;5.536;2023-11-18T06:51:23;40.22;;;17.13;;
67776;SDS011;54576;52.020;5.536;2023-11-18T06:53:52;36.08;;;16.38;;
67776;SDS011;54576;52.020;5.536;2023-11-18T06:56:22;40.13;;;17.08;;
67776;SDS011;54576;52.020;5.536;2023-11-18T06:58:51;46.80;;;17.20;;
67776;SDS011;54576;52.020;5.536;2023-11-18T07:01:17;33.67;;;17.63;;
67776;SDS011;54576;52.020;5.536;2023-11-18T07:03:43;46.03;;;17.73;;
67776;SDS011;54576;52.020;5.536;2023-11-18T07:06:10;38.58;;;17.80;;
67776;SDS011;54576;52.020;5.536;2023-11-18T07:08:39;45.75;;;17.52;;
67776;SDS011;54576;52.020;5.536;2023-11-18T07:11:05;33.15;;;16.38;;
67776;SDS011;54576;52.020;5.536;2023-11-18T07:13:31;42.10;;;17.38;;
67776;SDS011;54576;52.020;5.536;2023-11-18T07:15:59;43.50;;;16.52;;
67776;SDS011;54576;52.020;5.536;2023-11-18T07:18:28;31.55;;;16.75;;
67776;SDS011;54576;52.020;5.536;2023-11-18T07:20:56;32.47;;;16.23;;
67776;SDS011;54576;52.020;5.536;2023-11-18T07:23:23;26.50;;;15.80;;
67776;SDS011;54576;52.020;5.536;2023-11-18T07:25:49;36.40;;;15.90;;
67776;SDS011;54576;52.020;5.536;2023-11-18T07:28:14;33.33;;;16.48;;
67776;SDS011;54576;52.020;5.536;2023-11-18T07:30:41;31.27;;;15.02;;
67776;SDS011;54576;52.020;5.536;2023-11-18T07:33:07;29.85;;;15.20;;
67776;SDS011;54576;52.020;5.536;2023-11-18T07:35:33;30.70;;;14.98;;
67776;SDS011;54576;52.020;5.536;2023-11-18T07:38:00;40.72;;;14.70;;
67776;SDS011;54576;52.020;5.536;2023-11-18T07:40:26;31.80;;;14.95;;
67776;SDS011;54576;52.020;5.536;2023-11-18T07:42:56;34.58;;;14.43;;
67776;SDS011;54576;52.020;5.536;2023-11-18T07:45:22;29.98;;;14.15;;
67776;SDS011;54576;52.020;5.536;2023-11-18T07:47:51;26.15;;;13.43;;
67776;SDS011;54576;52.020;5.536;2023-11-18T07:50:19;30.58;;;15.73;;
67776;SDS011;54576;52.020;5.536;2023-11-18T07:52:49;29.23;;;15.05;;
67776;SDS011;54576;52.020;5.536;2023-11-18T07:57:41;28.25;;;14.73;;
67776;SDS011;54576;52.020;5.536;2023-11-18T08:00:07;26.08;;;14.43;;
67776;SDS011;54576;52.020;5.536;2023-11-18T08:02:36;25.08;;;14.23;;
67776;SDS011;54576;52.020;5.536;2023-11-18T08:05:05;30.40;;;15.27;;
67776;SDS011;54576;52.020;5.536;2023-11-18T08:07:32;32.42;;;15.65;;
67776;SDS011;54576;52.020;5.536;2023-11-18T08:09:59;32.92;;;15.85;;
67776;SDS011;54576;52.020;5.536;2023-11-18T08:12:24;31.58;;;14.80;;
67776;SDS011;54576;52.020;5.536;2023-11-18T08:14:50;28.65;;;14.13;;
67776;SDS011;54576;52.020;5.536;2023-11-18T08:17:16;32.95;;;18.33;;
67776;SDS011;54576;52.020;5.536;2023-11-18T08:19:41;30.58;;;14.48;;
67776;SDS011;54576;52.020;5.536;2023-11-18T08:22:07;30.83;;;14.95;;
67776;SDS011;54576;52.020;5.536;2023-11-18T08:24:34;39.88;;;16.20;;
67776;SDS011;54576;52.020;5.536;2023-11-18T08:27:02;27.13;;;14.65;;
67776;SDS011;54576;52.020;5.536;2023-11-18T08:29:29;22.95;;;13.27;;
67776;SDS011;54576;52.020;5.536;2023-11-18T08:31:57;25.58;;;13.35;;
67776;SDS011;54576;52.020;5.536;2023-11-18T08:34:22;54.17;;;27.00;;
67776;SDS011;54576;52.020;5.536;2023-11-18T08:36:50;54.80;;;31.23;;
67776;SDS011;54576;52.020;5.536;2023-11-18T08:39:16;93.32;;;52.03;;
67776;SDS011;54576;52.020;5.536;2023-11-18T08:41:45;57.30;;;30.67;;
67776;SDS011;54576;52.020;5.536;2023-11-18T08:44:15;54.47;;;31.45;;
67776;SDS011;54576;52.020;5.536;2023-11-18T08:46:41;44.15;;;21.15;;
67776;SDS011;54576;52.020;5.536;2023-11-18T08:49:07;28.92;;;17.00;;
67776;SDS011;54576;52.020;5.536;2023-11-18T08:51:36;24.73;;;15.05;;
67776;SDS011;54576;52.020;5.536;2023-11-18T08:54:03;34.33;;;18.13;;
67776;SDS011;54576;52.020;5.536;2023-11-18T08:56:47;35.45;;;19.45;;
67776;SDS011;54576;52.020;5.536;2023-11-18T08:59:15;47.55;;;22.42;;
67776;SDS011;54576;52.020;5.536;2023-11-18T09:01:49;24.15;;;13.85;;
67776;SDS011;54576;52.020;5.536;2023-11-18T09:04:20;36.20;;;14.77;;
67776;SDS011;54576;52.020;5.536;2023-11-18T09:06:46;29.63;;;12.30;;
67776;SDS011;54576;52.020;5.536;2023-11-18T09:09:13;21.70;;;10.95;;
67776;SDS011;54576;52.020;5.536;2023-11-18T09:11:40;44.13;;;11.23;;
67776;SDS011;54576;52.020;5.536;2023-11-18T09:14:07;29.50;;;11.23;;
67776;SDS011;54576;52.020;5.536;2023-11-18T09:16:33;19.77;;;10.75;;
67776;SDS011;54576;52.020;5.536;2023-11-18T09:19:04;23.85;;;11.23;;
67776;SDS011;54576;52.020;5.536;2023-11-18T09:21:31;19.92;;;10.15;;
67776;SDS011;54576;52.020;5.536;2023-11-18T09:24:00;18.17;;;10.52;;
67776;SDS011;54576;52.020;5.536;2023-11-18T09:26:30;18.08;;;9.15;;
67776;SDS011;54576;52.020;5.536;2023-11-18T09:28:56;17.65;;;8.57;;
67776;SDS011;54576;52.020;5.536;2023-11-18T09:31:24;18.98;;;9.75;;
67776;SDS011;54576;52.020;5.536;2023-11-18T09:33:49;18.17;;;9.75;;
67776;SDS011;54576;52.020;5.536;2023-11-18T09:36:19;24.38;;;10.40;;
67776;SDS011;54576;52.020;5.536;2023-11-18T09:38:45;18.73;;;9.65;;
67776;SDS011;54576;52.020;5.536;2023-11-18T09:41:18;19.60;;;9.40;;
67776;SDS011;54576;52.020;5.536;2023-11-18T09:43:44;22.38;;;8.90;;
67776;SDS011;54576;52.020;5.536;2023-11-18T09:48:45;21.67;;;8.63;;
67776;SDS011;54576;52.020;5.536;2023-11-18T09:51:31;19.95;;;8.30;;
67776;SDS011;54576;52.020;5.536;2023-11-18T09:54:04;18.65;;;9.75;;
67776;SDS011;54576;52.020;5.536;2023-11-18T09:59:11;22.58;;;8.07;;
67776;SDS011;54576;52.020;5.536;2023-11-18T10:01:49;22.42;;;8.18;;
67776;SDS011;54576;52.020;5.536;2023-11-18T10:04:19;21.65;;;8.35;;
67776;SDS011;54576;52.020;5.536;2023-11-18T10:06:46;21.73;;;8.52;;
67776;SDS011;54576;52.020;5.536;2023-11-18T10:09:13;17.08;;;8.60;;
67776;SDS011;54576;52.020;5.536;2023-11-18T10:11:48;26.30;;;10.98;;
67776;SDS011;54576;52.020;5.536;2023-11-18T10:14:14;19.02;;;8.90;;
67776;SDS011;54576;52.020;5.536;2023-11-18T10:16:43;19.98;;;7.97;;
67776;SDS011;54576;52.020;5.536;2023-11-18T10:19:12;18.67;;;8.35;;
67776;SDS011;54576;52.020;5.536;2023-11-18T10:21:39;23.63;;;8.68;;
67776;SDS011;54576;52.020;5.536;2023-11-18T10:24:05;17.88;;;8.63;;
67776;SDS011;54576;52.020;5.536;2023-11-18T10:26:39;24.13;;;8.30;;
67776;SDS011;54576;52.020;5.536;2023-11-18T10:29:10;21.35;;;8.13;;
67776;SDS011;54576;52.020;5.536;2023-11-18T10:31:38;26.63;;;9.40;;
67776;SDS011;54576;52.020;5.536;2023-11-18T10:34:09;20.40;;;8.98;;
67776;SDS011;54576;52.020;5.536;2023-11-18T10:36:36;20.90;;;8.45;;
67776;SDS011;54576;52.020;5.536;2023-11-18T10:39:03;19.42;;;8.48;;
67776;SDS011;54576;52.020;5.536;2023-11-18T10:41:41;22.02;;;9.77;;
67776;SDS011;54576;52.020;5.536;2023-11-18T10:44:08;17.58;;;7.78;;
67776;SDS011;54576;52.020;5.536;2023-11-18T10:46:39;19.55;;;8.38;;
67776;SDS011;54576;52.020;5.536;2023-11-18T10:49:09;17.95;;;8.07;;
67776;SDS011;54576;52.020;5.536;2023-11-18T10:51:35;13.43;;;7.53;;
67776;SDS011;54576;52.020;5.536;2023-11-18T10:54:04;14.98;;;7.38;;
67776;SDS011;54576;52.020;5.536;2023-11-18T10:56:39;17.17;;;8.25;;
67776;SDS011;54576;52.020;5.536;2023-11-18T10:59:11;19.55;;;7.82;;
67776;SDS011;54576;52.020;5.536;2023-11-18T11:01:41;26.35;;;7.70;;
67776;SDS011;54576;52.020;5.536;2023-11-18T11:04:08;14.32;;;7.85;;
67776;SDS011;54576;52.020;5.536;2023-11-18T11:06:35;19.50;;;11.95;;
67776;SDS011;54576;52.020;5.536;2023-11-18T11:09:14;23.13;;;11.55;;
67776;SDS011;54576;52.020;5.536;2023-11-18T11:11:45;22.63;;;12.13;;
67776;SDS011;54576;52.020;5.536;2023-11-18T11:14:34;24.23;;;11.07;;
67776;SDS011;54576;52.020;5.536;2023-11-18T11:17:06;21.05;;;9.93;;
67776;SDS011;54576;52.020;5.536;2023-11-18T11:19:53;19.77;;;8.80;;
67776;SDS011;54576;52.020;5.536;2023-11-18T11:22:42;21.42;;;9.88;;
67776;SDS011;54576;52.020;5.536;2023-11-18T11:25:36;16.35;;;7.30;;
67776;SDS011;54576;52.020;5.536;2023-11-18T11:28:34;18.77;;;8.00;;
67776;SDS011;54576;52.020;5.536;2023-11-18T11:33:46;18.98;;;7.68;;
67776;SDS011;54576;52.020;5.536;2023-11-18T11:36:23;21.80;;;7.75;;
67776;SDS011;54576;52.020;5.536;2023-11-18T11:38:56;16.52;;;7.63;;
67776;SDS011;54576;52.020;5.536;2023-11-18T11:41:24;22.52;;;8.13;;
67776;SDS011;54576;52.020;5.536;2023-11-18T11:46:23;20.58;;;6.80;;
67776;SDS011;54576;52.020;5.536;2023-11-18T11:48:58;21.50;;;6.70;;
67776;SDS011;54576;52.020;5.536;2023-11-18T11:51:36;10.20;;;5.57;;
67776;SDS011;54576;52.020;5.536;2023-11-18T11:54:11;18.25;;;6.70;;
67776;SDS011;54576;52.020;5.536;2023-11-18T11:56:55;23.38;;;6.20;;
67776;SDS011;54576;52.020;5.536;2023-11-18T12:02:26;21.60;;;5.88;;
67776;SDS011;54576;52.020;5.536;2023-11-18T12:04:56;18.40;;;5.05;;
67776;SDS011;54576;52.020;5.536;2023-11-18T12:07:31;21.25;;;5.60;;
67776;SDS011;54576;52.020;5.536;2023-11-18T12:10:07;14.50;;;5.20;;
67776;SDS011;54576;52.020;5.536;2023-11-18T12:12:38;14.85;;;5.45;;
67776;SDS011;54576;52.020;5.536;2023-11-18T12:15:05;19.20;;;5.30;;
67776;SDS011;54576;52.020;5.536;2023-11-18T12:23:07;10.30;;;3.72;;
67776;SDS011;54576;52.020;5.536;2023-11-18T12:25:48;7.55;;;3.15;;
67776;SDS011;54576;52.020;5.536;2023-11-18T12:28:19;11.82;;;4.25;;
67776;SDS011;54576;52.020;5.536;2023-11-18T12:31:10;16.80;;;6.60;;
67776;SDS011;54576;52.020;5.536;2023-11-18T12:42:36;11.02;;;4.15;;
67776;SDS011;54576;52.020;5.536;2023-11-18T12:45:42;17.20;;;6.00;;
67776;SDS011;54576;52.020;5.536;2023-11-18T12:48:09;15.98;;;4.93;;
67776;SDS011;54576;52.020;5.536;2023-11-18T12:50:40;17.10;;;4.28;;
67776;SDS011;54576;52.020;5.536;2023-11-18T12:53:08;13.55;;;4.40;;
67776;SDS011;54576;52.020;5.536;2023-11-18T12:55:35;21.55;;;5.28;;
67776;SDS011;54576;52.020;5.536;2023-11-18T12:58:01;9.73;;;3.92;;
67776;SDS011;54576;52.020;5.536;2023-11-18T13:00:30;19.42;;;4.68;;
67776;SDS011;54576;52.020;5.536;2023-11-18T13:02:59;12.35;;;4.30;;
67776;SDS011;54576;52.020;5.536;2023-11-18T13:05:25;15.52;;;4.72;;
67776;SDS011;54576;52.020;5.536;2023-11-18T13:07:55;18.77;;;5.45;;
67776;SDS011;54576;52.020;5.536;2023-11-18T13:10:22;11.90;;;4.03;;
67776;SDS011;54576;52.020;5.536;2023-11-18T13:12:49;16.85;;;4.90;;
67776;SDS011;54576;52.020;5.536;2023-11-18T13:15:15;9.65;;;4.38;;
67776;SDS011;54576;52.020;5.536;2023-11-18T13:17:56;13.05;;;3.97;;
67776;SDS011;54576;52.020;5.536;2023-11-18T13:20:25;10.32;;;4.07;;
67776;SDS011;54576;52.020;5.536;2023-11-18T13:22:51;12.20;;;3.45;;
67776;SDS011;54576;52.020;5.536;2023-11-18T13:25:20;11.73;;;4.43;;
67776;SDS011;54576;52.020;5.536;2023-11-18T13:27:49;15.05;;;4.85;;
67776;SDS011;54576;52.020;5.536;2023-11-18T13:30:15;14.15;;;5.15;;
67776;SDS011;54576;52.020;5.536;2023-11-18T13:32:42;11.05;;;5.03;;
67776;SDS011;54576;52.020;5.536;2023-11-18T13:35:08;13.20;;;4.38;;
67776;SDS011;54576;52.020;5.536;2023-11-18T13:37:36;9.20;;;4.22;;
67776;SDS011;54576;52.020;5.536;2023-11-18T13:40:01;5.70;;;3.78;;
67776;SDS011;54576;52.020;5.536;2023-11-18T13:42:31;6.97;;;3.58;;
67776;SDS011;54576;52.020;5.536;2023-11-18T13:45:05;10.00;;;3.85;;
67776;SDS011;54576;52.020;5.536;2023-11-18T13:47:37;9.88;;;3.35;;
67776;SDS011;54576;52.020;5.536;2023-11-18T13:50:09;6.30;;;3.38;;
67776;SDS011;54576;52.020;5.536;2023-11-18T13:52:35;11.10;;;3.60;;
67776;SDS011;54576;52.020;5.536;2023-11-18T13:55:04;6.10;;;2.93;;
67776;SDS011;54576;52.020;5.536;2023-11-18T13:57:31;7.97;;;2.97;;
67776;SDS011;54576;52.020;5.536;2023-11-18T13:59:57;8.45;;;3.05;;
67776;SDS011;54576;52.020;5.536;2023-11-18T14:02:24;7.47;;;1.98;;
67776;SDS011;54576;52.020;5.536;2023-11-18T14:04:49;6.72;;;2.80;;
67776;SDS011;54576;52.020;5.536;2023-11-18T14:07:15;5.22;;;2.33;;
67776;SDS011;54576;52.020;5.536;2023-11-18T14:09:42;7.60;;;2.45;;
67776;SDS011;54576;52.020;5.536;2023-11-18T14:12:11;5.00;;;2.00;;
67776;SDS011;54576;52.020;5.536;2023-11-18T14:14:38;5.15;;;2.10;;
67776;SDS011;54576;52.020;5.536;2023-11-18T14:17:07;3.05;;;2.03;;
67776;SDS011;54576;52.020;5.536;2023-11-18T14:19:35;3.42;;;1.63;;
67776;SDS011;54576;52.020;5.536;2023-11-18T14:22:00;3.42;;;2.03;;
67776;SDS011;54576;52.020;5.536;2023-11-18T14:24:29;4.03;;;2.10;;
67776;SDS011;54576;52.020;5.536;2023-11-18T14:26:56;4.38;;;1.90;;
67776;SDS011;54576;52.020;5.536;2023-11-18T14:29:22;7.78;;;1.92;;
67776;SDS011;54576;52.020;5.536;2023-11-18T14:31:48;3.97;;;1.80;;
67776;SDS011;54576;52.020;5.536;2023-11-18T14:34:14;3.55;;;1.65;;
67776;SDS011;54576;52.020;5.536;2023-11-18T14:36:43;2.70;;;2.08;;
67776;SDS011;54576;52.020;5.536;2023-11-18T14:39:09;3.13;;;2.33;;
67776;SDS011;54576;52.020;5.536;2023-11-18T14:41:38;5.23;;;2.60;;
67776;SDS011;54576;52.020;5.536;2023-11-18T14:44:03;4.28;;;1.85;;
67776;SDS011;54576;52.020;5.536;2023-11-18T14:46:32;3.38;;;1.60;;
67776;SDS011;54576;52.020;5.536;2023-11-18T14:48:57;3.63;;;1.80;;
67776;SDS011;54576;52.020;5.536;2023-11-18T14:51:24;2.40;;;1.90;;
67776;SDS011;54576;52.020;5.536;2023-11-18T14:53:50;3.35;;;1.40;;
67776;SDS011;54576;52.020;5.536;2023-11-18T14:56:16;10.35;;;1.70;;
67776;SDS011;54576;52.020;5.536;2023-11-18T14:58:41;5.57;;;1.98;;
67776;SDS011;54576;52.020;5.536;2023-11-18T15:01:07;4.65;;;1.80;;
67776;SDS011;54576;52.020;5.536;2023-11-18T15:03:33;1.88;;;1.70;;
67776;SDS011;54576;52.020;5.536;2023-11-18T15:06:00;4.68;;;1.83;;
67776;SDS011;54576;52.020;5.536;2023-11-18T15:08:25;4.07;;;1.48;;
67776;SDS011;54576;52.020;5.536;2023-11-18T15:10:51;4.22;;;2.17;;
67776;SDS011;54576;52.020;5.536;2023-11-18T15:13:16;4.05;;;2.35;;